createdAt,value
2018-05-27T00:02:15.553Z,19.9
2018-05-27T00:12:27.632Z,19.9
2018-05-27T00:22:41.330Z,19.8
2018-05-27T00:32:55.659Z,19.6
2018-05-27T00:43:41.323Z,19.3
2018-05-27T00:55:12.439Z,19.2
2018-05-27T01:05:58.682Z,19.0
2018-05-27T01:16:13.060Z,19.0
2018-05-27T01:26:27.022Z,18.9
2018-05-27T01:37:24.130Z,18.6
2018-05-27T01:47:56.152Z,18.6
2018-05-27T01:58:10.219Z,18.4
2018-05-27T02:08:55.524Z,18.1
2018-05-27T02:19:10.107Z,18.1
2018-05-27T02:29:22.147Z,18.0
2018-05-27T02:40:07.966Z,17.7
2018-05-27T02:50:53.656Z,17.6
2018-05-27T03:01:06.204Z,17.5
2018-05-27T03:11:51.682Z,17.3
2018-05-27T03:22:37.444Z,17.1
2018-05-27T03:33:23.377Z,17.0
2018-05-27T03:44:08.885Z,16.9
2018-05-27T03:54:20.420Z,16.9
2018-05-27T04:04:34.893Z,16.9
2018-05-27T04:14:50.325Z,16.9
2018-05-27T04:25:04.652Z,16.9
2018-05-27T04:35:19.257Z,16.8
2018-05-27T04:45:33.248Z,16.8
2018-05-27T04:55:47.822Z,16.8
2018-05-27T05:06:02.806Z,16.8
2018-05-27T05:16:17.114Z,16.9
2018-05-27T05:26:31.366Z,17.0
2018-05-27T05:36:45.472Z,17.2
2018-05-27T05:46:59.907Z,17.2
2018-05-27T05:57:12.219Z,17.4
2018-05-27T06:07:26.052Z,17.6
2018-05-27T06:17:42.354Z,17.8
2018-05-27T06:27:56.395Z,18.0
2018-05-27T06:38:10.831Z,18.2
2018-05-27T06:49:57.166Z,18.5
2018-05-27T07:00:11.394Z,18.8
2018-05-27T07:10:25.683Z,19.2
2018-05-27T07:21:13.143Z,20.2
2018-05-27T07:32:55.628Z,21.7
2018-05-27T07:43:09.631Z,21.7
2018-05-27T07:55:10.374Z,25.6
2018-05-27T08:05:24.464Z,25.6
2018-05-27T08:16:55.033Z,28.7
2018-05-27T08:27:09.551Z,28.7
2018-05-27T08:38:45.848Z,31.4
2018-05-27T08:49:00.876Z,31.4
2018-05-27T08:59:13.400Z,32.8
2018-05-27T09:09:25.413Z,33.8
2018-05-27T09:20:24.886Z,35.7
2018-05-27T09:31:09.686Z,36.6
2018-05-27T09:41:55.332Z,37.2
2018-05-27T09:52:40.655Z,37.7
2018-05-27T10:02:54.627Z,37.7
2018-05-27T10:13:09.502Z,38.4
2018-05-27T10:23:23.346Z,39.0
2018-05-27T10:34:08.827Z,40.1
2018-05-27T10:45:31.541Z,40.6
2018-05-27T10:57:21.144Z,41.0
2018-05-27T11:08:06.660Z,41.4
2018-05-27T11:18:52.442Z,41.6
2018-05-27T11:29:37.365Z,41.7
2018-05-27T11:40:23.652Z,41.6
2018-05-27T11:50:38.594Z,41.6
2018-05-27T12:01:24.452Z,41.0
2018-05-27T12:12:10.141Z,40.7
2018-05-27T12:24:30.781Z,40.5
2018-05-27T12:34:43.198Z,40.5
2018-05-27T12:45:28.857Z,40.5
2018-05-27T12:57:09.424Z,40.3
2018-05-27T13:18:12.456Z,40.0
2018-05-27T13:28:26.736Z,39.3
2018-05-27T13:38:40.629Z,38.5
2018-05-27T13:49:26.509Z,36.9
2018-05-27T14:00:56.923Z,36.1
2018-05-27T14:11:12.616Z,36.1
2018-05-27T14:21:26.924Z,35.5
2018-05-27T14:31:41.942Z,34.9
2018-05-27T14:41:58.933Z,34.5
2018-05-27T14:52:16.504Z,34.2
2018-05-27T15:02:30.901Z,33.9
2018-05-27T15:12:45.436Z,33.5
2018-05-27T15:22:57.189Z,32.9
2018-05-27T15:33:11.739Z,32.2
2018-05-27T15:43:27.205Z,31.6
2018-05-27T15:53:46.443Z,31.1
2018-05-27T16:03:58.486Z,30.6
2018-05-27T16:14:14.608Z,30.0
2018-05-27T16:24:30.791Z,29.6
2018-05-27T16:34:47.152Z,29.1
2018-05-27T16:45:32.795Z,28.4
2018-05-27T16:55:47.886Z,28.4
2018-05-27T17:06:34.833Z,27.9
2018-05-27T17:16:49.880Z,27.8
2018-05-27T17:27:03.872Z,27.6
2018-05-27T17:37:59.763Z,27.1
2018-05-27T17:48:13.527Z,27.0
2018-05-27T17:58:33.844Z,26.8
2018-05-27T18:09:19.596Z,26.4
2018-05-27T18:20:06.042Z,26.2
2018-05-27T18:30:20.654Z,26.2
2018-05-27T18:55:37.580Z,25.2
2018-05-27T19:22:43.772Z,24.4
2018-05-27T19:33:38.070Z,23.8
2018-05-27T19:44:29.916Z,23.5
2018-05-27T20:06:59.777Z,22.7
2018-05-27T20:35:01.843Z,21.8
2018-05-27T21:11:48.355Z,20.8
2018-05-27T21:22:00.725Z,20.8
2018-05-27T21:32:45.915Z,20.2
2018-05-27T21:43:00.809Z,20.2
2018-05-27T21:53:15.118Z,20.0
2018-05-27T22:03:29.278Z,19.8
2018-05-27T22:13:53.849Z,19.6
2018-05-27T22:25:14.344Z,19.1
2018-05-27T22:36:01.925Z,19.0
2018-05-27T22:46:47.787Z,18.8
2018-05-27T22:57:00.109Z,18.8
2018-05-27T23:07:14.538Z,18.6
2018-05-27T23:17:31.453Z,18.5
2018-05-27T23:28:18.212Z,18.2
2018-05-27T23:39:04.912Z,18.1
2018-05-27T23:49:19.395Z,18.0
2018-05-27T23:59:34.360Z,18.0
